Time;durP1;ratioP1;P1;durP2;ratioP2;P2;SDS_P1;SDS_P2;PMS_P1;PMS_P2;Temp;Humidity;BMP_temperature;BMP_pressure;BME280_temperature;BME280_humidity;BME280_pressure;Samples;Min_cycle;Max_cycle;Signal;HPM_P1;HPM_P2
2022/11/09 00:00:05;;;;;;;2.75;1.67;;;;;;;;;;1033660;28;20474;-75
2022/11/09 00:00:35;;;;;;;3.90;1.95;;;;;;;;;;1029299;28;20069;-75
2022/11/09 00:01:06;;;;;;;3.13;1.88;;;;;;;;;;1034086;28;20045;-75
2022/11/09 00:01:37;;;;;;;5.13;2.65;;;;;;;;;;1030155;28;20389;-75
2022/11/09 00:02:07;;;;;;;10.70;2.75;;;;;;;;;;1031622;28;20018;-75
2022/11/09 00:02:38;;;;;;;3.70;2.35;;;;;;;;;;1030288;28;20014;-75
2022/11/09 00:03:09;;;;;;;5.68;1.52;;;;;;;;;;1029762;28;20048;-75
2022/11/09 00:03:39;;;;;;;4.10;1.70;;;;;;;;;;1033060;28;20075;-75
2022/11/09 00:04:10;;;;;;;3.88;1.70;;;;;;;;;;1033957;28;20034;-75
2022/11/09 00:04:41;;;;;;;5.07;2.13;;;;;;;;;;1034413;28;20041;-75
2022/11/09 00:05:11;;;;;;;8.35;2.30;;;;;;;;;;1033548;28;20037;-75
2022/11/09 00:05:42;;;;;;;5.32;2.72;;;;;;;;;;1035525;28;20048;-75
2022/11/09 00:06:13;;;;;;;5.55;3.55;;;;;;;;;;1034149;28;20076;-75
2022/11/09 00:06:43;;;;;;;11.68;4.38;;;;;;;;;;1035011;28;20022;-75
2022/11/09 00:07:14;;;;;;;8.88;2.85;;;;;;;;;;1035420;28;20060;-75
2022/11/09 00:07:45;;;;;;;6.25;3.25;;;;;;;;;;1034917;28;20026;-75
2022/11/09 00:08:16;;;;;;;6.22;3.08;;;;;;;;;;1035193;28;20026;-75
2022/11/09 00:08:46;;;;;;;6.25;2.22;;;;;;;;;;1035490;28;20030;-75
2022/11/09 00:09:17;;;;;;;8.07;3.00;;;;;;;;;;1034951;28;20030;-75
2022/11/09 00:09:47;;;;;;;6.32;2.63;;;;;;;;;;1029743;28;20121;-75
2022/11/09 00:10:18;;;;;;;6.10;3.15;;;;;;;;;;1034693;28;20029;-75
2022/11/09 00:10:48;;;;;;;6.45;2.35;;;;;;;;;;1036001;28;20026;-75
2022/11/09 00:11:19;;;;;;;5.22;2.15;;;;;;;;;;1034485;28;20564;-75
2022/11/09 00:11:52;;;;;;;8.23;2.40;;;;;;;;;;1034295;28;20033;-75
2022/11/09 00:12:22;;;;;;;3.95;2.00;;;;;;;;;;1034852;28;20028;-75
2022/11/09 00:12:53;;;;;;;3.45;1.88;;;;;;;;;;1034585;28;20041;-75
2022/11/09 00:13:23;;;;;;;3.63;2.25;;;;;;;;;;1031155;28;20038;-75
2022/11/09 00:13:54;;;;;;;7.10;2.63;;;;;;;;;;1034854;28;20125;-75
2022/11/09 00:14:24;;;;;;;5.25;2.38;;;;;;;;;;1034218;28;20125;-74
2022/11/09 00:14:55;;;;;;;5.03;2.53;;;;;;;;;;1034422;28;20108;-74
2022/11/09 00:15:26;;;;;;;4.80;2.50;;;;;;;;;;1033870;28;20034;-74
2022/11/09 00:16:00;;;;;;;4.88;2.75;;;;;;;;;;1034271;28;20108;-74
2022/11/09 00:16:31;;;;;;;3.88;1.83;;;;;;;;;;1033759;28;20026;-74
2022/11/09 00:17:02;;;;;;;3.83;1.60;;;;;;;;;;1034265;28;20414;-74
2022/11/09 00:17:32;;;;;;;4.15;1.70;;;;;;;;;;1033899;28;20073;-74
2022/11/09 00:18:03;;;;;;;3.53;1.92;;;;;;;;;;1029783;28;20018;-74
2022/11/09 00:18:34;;;;;;;2.85;1.85;;;;;;;;;;1029771;28;20018;-74
2022/11/09 00:19:05;;;;;;;8.25;2.83;;;;;;;;;;1030128;28;20031;-74
2022/11/09 00:19:35;;;;;;;5.60;2.50;;;;;;;;;;1029724;28;20093;-74
2022/11/09 00:20:06;;;;;;;3.80;2.42;;;;;;;;;;1034203;28;20471;-74
2022/11/09 00:20:38;;;;;;;3.97;2.17;;;;;;;;;;1033873;28;20022;-75
2022/11/09 00:21:10;;;;;;;2.45;1.52;;;;;;;;;;1034065;28;20042;-75
2022/11/09 00:21:41;;;;;;;5.15;2.42;;;;;;;;;;1033945;28;20030;-75
2022/11/09 00:22:12;;;;;;;4.50;2.42;;;;;;;;;;1033894;28;20023;-75
2022/11/09 00:22:45;;;;;;;3.53;2.28;;;;;;;;;;1033272;28;20030;-75
2022/11/09 00:23:16;;;;;;;4.82;2.15;;;;;;;;;;1033790;28;20160;-75
2022/11/09 00:23:47;;;;;;;3.10;1.85;;;;;;;;;;1034020;28;20027;-75
2022/11/09 00:24:18;;;;;;;3.83;2.28;;;;;;;;;;1034593;28;20116;-75
2022/11/09 00:24:48;;;;;;;3.35;1.55;;;;;;;;;;1034087;28;20084;-75
2022/11/09 00:25:19;;;;;;;2.97;1.45;;;;;;;;;;1033937;28;20082;-75
2022/11/09 00:25:49;;;;;;;4.53;2.13;;;;;;;;;;1034056;28;20030;-75
2022/11/09 00:26:20;;;;;;;4.53;1.75;;;;;;;;;;1033853;28;20109;-75
2022/11/09 00:26:51;;;;;;;3.58;1.58;;;;;;;;;;1034626;28;20097;-75
2022/11/09 00:27:21;;;;;;;3.95;2.40;;;;;;;;;;1033689;28;20032;-75
2022/11/09 00:27:52;;;;;;;3.80;1.80;;;;;;;;;;1034521;28;20400;-75
2022/11/09 00:28:23;;;;;;;8.10;2.85;;;;;;;;;;1033085;28;20053;-75
2022/11/09 00:28:53;;;;;;;6.47;3.58;;;;;;;;;;1033888;28;20030;-75
2022/11/09 00:29:24;;;;;;;5.18;3.15;;;;;;;;;;1034094;28;20109;-75
2022/11/09 00:29:54;;;;;;;7.53;3.75;;;;;;;;;;1034174;28;20030;-75
2022/11/09 00:30:26;;;;;;;6.60;3.58;;;;;;;;;;1034623;28;20457;-75
2022/11/09 00:31:00;;;;;;;7.22;3.30;;;;;;;;;;1034604;28;20025;-75
2022/11/09 00:31:30;;;;;;;8.70;3.72;;;;;;;;;;1034323;28;20482;-75
2022/11/09 00:32:01;;;;;;;9.23;4.22;;;;;;;;;;1033832;28;20031;-75
2022/11/09 00:32:32;;;;;;;11.23;5.32;;;;;;;;;;1034137;28;20122;-75
2022/11/09 00:33:02;;;;;;;10.73;5.75;;;;;;;;;;1034298;28;20030;-75
2022/11/09 00:33:33;;;;;;;12.27;6.97;;;;;;;;;;1034007;28;20122;-75
2022/11/09 00:34:04;;;;;;;10.63;6.07;;;;;;;;;;1034028;28;20022;-75
2022/11/09 00:34:34;;;;;;;11.82;5.97;;;;;;;;;;1032472;28;20109;-75
2022/11/09 00:35:05;;;;;;;15.02;7.43;;;;;;;;;;1034254;28;20359;-75
2022/11/09 00:35:37;;;;;;;15.05;8.50;;;;;;;;;;1034845;28;20022;-75
2022/11/09 00:36:11;;;;;;;18.50;7.97;;;;;;;;;;1034364;28;20069;-75
2022/11/09 00:36:42;;;;;;;15.68;8.55;;;;;;;;;;1034367;28;20067;-75
2022/11/09 00:37:12;;;;;;;14.25;8.05;;;;;;;;;;1033579;28;20456;-75
2022/11/09 00:37:43;;;;;;;14.15;8.52;;;;;;;;;;1029557;28;20113;-75
2022/11/09 00:38:13;;;;;;;12.13;8.02;;;;;;;;;;1029815;28;20037;-75
2022/11/09 00:38:47;;;;;;;16.58;8.88;;;;;;;;;;1029775;28;20097;-75
2022/11/09 00:39:18;;;;;;;16.08;8.25;;;;;;;;;;1030149;28;20014;-75
2022/11/09 00:39:48;;;;;;;12.55;6.15;;;;;;;;;;1033761;28;20117;-75
2022/11/09 00:40:19;;;;;;;13.43;6.05;;;;;;;;;;1034244;28;20032;-75
2022/11/09 00:40:49;;;;;;;11.88;5.38;;;;;;;;;;1034314;28;20442;-75
2022/11/09 00:41:20;;;;;;;12.80;7.28;;;;;;;;;;1033319;28;20387;-75
2022/11/09 00:41:51;;;;;;;11.80;6.15;;;;;;;;;;1034204;28;20392;-75
2022/11/09 00:42:21;;;;;;;11.55;5.38;;;;;;;;;;1034137;28;20030;-75
2022/11/09 00:42:52;;;;;;;8.95;5.78;;;;;;;;;;1033387;28;20041;-75
2022/11/09 00:43:22;;;;;;;9.95;4.60;;;;;;;;;;1033975;28;20018;-75
2022/11/09 00:43:53;;;;;;;22.52;5.40;;;;;;;;;;1034167;28;20018;-75
2022/11/09 00:44:24;;;;;;;9.95;4.57;;;;;;;;;;1034095;28;20025;-75
2022/11/09 00:44:54;;;;;;;10.23;4.93;;;;;;;;;;1035483;28;20017;-75
2022/11/09 00:45:25;;;;;;;10.35;5.40;;;;;;;;;;1033145;28;20032;-74
2022/11/09 00:45:55;;;;;;;8.13;3.72;;;;;;;;;;1033945;28;20057;-74
2022/11/09 00:46:26;;;;;;;8.85;4.80;;;;;;;;;;1033456;28;20441;-74
2022/11/09 00:46:57;;;;;;;13.27;5.68;;;;;;;;;;1034513;28;20046;-74
2022/11/09 00:47:27;;;;;;;9.73;5.07;;;;;;;;;;1033678;28;20049;-74
2022/11/09 00:47:58;;;;;;;11.73;4.55;;;;;;;;;;1034114;28;20030;-74
2022/11/09 00:48:28;;;;;;;11.00;5.07;;;;;;;;;;1033905;28;20049;-74
2022/11/09 00:48:59;;;;;;;11.80;5.43;;;;;;;;;;1034483;28;20026;-74
2022/11/09 00:49:29;;;;;;;12.35;5.70;;;;;;;;;;1034167;28;20122;-74
2022/11/09 00:50:00;;;;;;;11.18;5.90;;;;;;;;;;1033994;28;20018;-74
2022/11/09 00:50:31;;;;;;;11.75;5.95;;;;;;;;;;1034531;28;20022;-74
2022/11/09 00:51:02;;;;;;;14.45;7.10;;;;;;;;;;1033933;28;20073;-75
2022/11/09 00:51:32;;;;;;;12.23;6.57;;;;;;;;;;1033662;28;20026;-75
2022/11/09 00:52:03;;;;;;;10.20;5.38;;;;;;;;;;1033076;28;20429;-75
2022/11/09 00:52:33;;;;;;;13.95;5.47;;;;;;;;;;1034259;28;20022;-75
2022/11/09 00:53:04;;;;;;;16.98;7.13;;;;;;;;;;1033649;28;20013;-75
2022/11/09 00:53:34;;;;;;;14.10;6.72;;;;;;;;;;1034184;28;20022;-75
2022/11/09 00:54:06;;;;;;;14.18;7.30;;;;;;;;;;1033728;28;20081;-75
2022/11/09 00:54:37;;;;;;;14.40;7.60;;;;;;;;;;1033717;28;20022;-75
2022/11/09 00:55:08;;;;;;;12.52;6.57;;;;;;;;;;1033713;28;20486;-75
2022/11/09 00:55:38;;;;;;;10.55;6.38;;;;;;;;;;1029683;28;20037;-75
2022/11/09 00:56:10;;;;;;;13.73;7.22;;;;;;;;;;1029854;28;20109;-75
2022/11/09 00:56:40;;;;;;;10.93;7.15;;;;;;;;;;1030614;28;20022;-75
2022/11/09 00:57:12;;;;;;;12.68;6.30;;;;;;;;;;1034690;28;20029;-75
2022/11/09 00:57:42;;;;;;;13.80;6.82;;;;;;;;;;1033431;28;20029;-75
2022/11/09 00:58:13;;;;;;;16.02;8.63;;;;;;;;;;1030765;28;20076;-75
2022/11/09 00:58:43;;;;;;;14.68;9.95;;;;;;;;;;1029819;28;20125;-75
2022/11/09 00:59:14;;;;;;;18.05;12.38;;;;;;;;;;1029566;28;20019;-75
2022/11/09 00:59:44;;;;;;;16.50;10.05;;;;;;;;;;1026765;28;20062;-75
2022/11/09 01:00:20;;;;;;;18.05;10.27;;;;;;;;;;1030013;28;20458;-75
2022/11/09 01:00:51;;;;;;;15.48;9.50;;;;;;;;;;1033340;28;20524;-75
2022/11/09 01:01:22;;;;;;;14.77;10.65;;;;;;;;;;1033545;28;20030;-75
2022/11/09 01:01:52;;;;;;;18.45;11.52;;;;;;;;;;1033630;28;20457;-75
2022/11/09 01:02:23;;;;;;;19.83;12.82;;;;;;;;;;1033469;28;20029;-74
2022/11/09 01:02:53;;;;;;;17.55;10.60;;;;;;;;;;1025854;28;20082;-74
2022/11/09 01:03:25;;;;;;;22.50;12.43;;;;;;;;;;1025327;28;20023;-74
2022/11/09 01:03:56;;;;;;;18.30;10.98;;;;;;;;;;1026106;28;20039;-74
2022/11/09 01:04:26;;;;;;;14.05;8.30;;;;;;;;;;1029746;28;20031;-74
2022/11/09 01:04:58;;;;;;;15.50;8.88;;;;;;;;;;1034427;28;20055;-74
2022/11/09 01:05:29;;;;;;;16.00;8.45;;;;;;;;;;1032831;28;20382;-74
2022/11/09 01:05:59;;;;;;;12.32;6.72;;;;;;;;;;1034218;28;20018;-74
2022/11/09 01:06:30;;;;;;;14.85;7.25;;;;;;;;;;1033190;28;20121;-74
2022/11/09 01:07:01;;;;;;;15.07;6.95;;;;;;;;;;1033946;28;20117;-74
2022/11/09 01:07:31;;;;;;;15.30;6.65;;;;;;;;;;1033934;28;20030;-74
2022/11/09 01:08:02;;;;;;;13.60;7.32;;;;;;;;;;1034115;28;20104;-74
2022/11/09 01:08:33;;;;;;;10.75;6.82;;;;;;;;;;1034145;28;20112;-74
2022/11/09 01:09:03;;;;;;;16.65;7.25;;;;;;;;;;1034267;28;20053;-74
2022/11/09 01:09:34;;;;;;;18.58;8.05;;;;;;;;;;1033945;28;20080;-74
2022/11/09 01:10:05;;;;;;;9.77;6.35;;;;;;;;;;1034221;28;20078;-74
2022/11/09 01:10:39;;;;;;;15.57;7.55;;;;;;;;;;1033874;28;20057;-74
2022/11/09 01:11:10;;;;;;;15.48;7.80;;;;;;;;;;1034468;28;20463;-75
2022/11/09 01:11:40;;;;;;;17.48;7.90;;;;;;;;;;1033831;28;20014;-75
2022/11/09 01:12:11;;;;;;;13.60;8.68;;;;;;;;;;1033158;28;20026;-75
2022/11/09 01:12:41;;;;;;;15.00;8.93;;;;;;;;;;1034653;28;20593;-75
2022/11/09 01:13:13;;;;;;;15.65;8.43;;;;;;;;;;1032545;28;20045;-75
2022/11/09 01:13:44;;;;;;;12.77;7.07;;;;;;;;;;1034233;28;20084;-75
2022/11/09 01:14:15;;;;;;;16.13;8.30;;;;;;;;;;1032978;28;20497;-75
2022/11/09 01:14:45;;;;;;;14.77;9.68;;;;;;;;;;1034133;28;20076;-75
2022/11/09 01:15:16;;;;;;;14.70;7.32;;;;;;;;;;1034589;28;20549;-75
2022/11/09 01:15:52;;;;;;;13.35;7.60;;;;;;;;;;1034025;28;20022;-75
2022/11/09 01:16:23;;;;;;;15.82;6.85;;;;;;;;;;1034111;28;20051;-75
2022/11/09 01:16:54;;;;;;;14.48;7.60;;;;;;;;;;1034285;28;20030;-75
2022/11/09 01:17:25;;;;;;;13.55;7.13;;;;;;;;;;1033587;28;20030;-75
2022/11/09 01:17:55;;;;;;;15.85;8.00;;;;;;;;;;1032737;28;20033;-75
2022/11/09 01:18:26;;;;;;;13.82;8.65;;;;;;;;;;1033820;28;20026;-75
2022/11/09 01:18:57;;;;;;;15.85;7.65;;;;;;;;;;1033638;28;20026;-76
2022/11/09 01:19:27;;;;;;;17.50;9.70;;;;;;;;;;1033400;28;20022;-76
2022/11/09 01:19:58;;;;;;;19.40;8.10;;;;;;;;;;1033581;28;20030;-76
2022/11/09 01:20:29;;;;;;;17.13;7.90;;;;;;;;;;1033396;28;20130;-76
2022/11/09 01:21:00;;;;;;;15.48;6.32;;;;;;;;;;1033251;28;20545;-75
2022/11/09 01:21:31;;;;;;;11.88;6.47;;;;;;;;;;1032533;28;20128;-75
2022/11/09 01:22:02;;;;;;;11.82;6.72;;;;;;;;;;1030909;28;20026;-75
2022/11/09 01:22:32;;;;;;;16.40;7.95;;;;;;;;;;1030809;28;20034;-75
2022/11/09 01:23:03;;;;;;;10.73;7.50;;;;;;;;;;1031298;28;20037;-75
2022/11/09 01:23:33;;;;;;;12.10;6.18;;;;;;;;;;1031607;28;20045;-76
2022/11/09 01:24:04;;;;;;;10.85;6.15;;;;;;;;;;1034078;28;20026;-76
2022/11/09 01:24:35;;;;;;;15.73;7.00;;;;;;;;;;1033778;28;20036;-76
2022/11/09 01:25:16;;;;;;;13.52;6.32;;;;;;;;;;1033823;28;20021;-76
2022/11/09 01:25:48;;;;;;;11.70;5.72;;;;;;;;;;1032402;28;20038;-75
2022/11/09 01:26:19;;;;;;;12.98;6.10;;;;;;;;;;1032763;28;20517;-75
2022/11/09 01:26:50;;;;;;;13.55;6.68;;;;;;;;;;1034428;28;20029;-77
2022/11/09 01:27:22;;;;;;;10.75;5.07;;;;;;;;;;1033505;28;20026;-77
2022/11/09 01:27:52;;;;;;;16.35;5.72;;;;;;;;;;1033638;28;20076;-76
2022/11/09 01:28:23;;;;;;;14.07;6.80;;;;;;;;;;1033783;28;20482;-76
2022/11/09 01:28:57;;;;;;;11.30;6.40;;;;;;;;;;1032246;28;20010;-76
2022/11/09 01:29:28;;;;;;;12.70;5.68;;;;;;;;;;1031972;28;20033;-75
2022/11/09 01:29:59;;;;;;;13.88;7.35;;;;;;;;;;1032313;28;20100;-76
2022/11/09 01:30:30;;;;;;;14.98;6.30;;;;;;;;;;1030847;28;20092;-76
2022/11/09 01:31:01;;;;;;;12.95;6.38;;;;;;;;;;1030219;28;20125;-75
2022/11/09 01:31:32;;;;;;;12.20;7.53;;;;;;;;;;1030804;28;20033;-75
2022/11/09 01:32:04;;;;;;;14.70;7.72;;;;;;;;;;1032177;28;20064;-75
2022/11/09 01:32:35;;;;;;;15.05;6.70;;;;;;;;;;1032408;28;20034;-75
2022/11/09 01:33:07;;;;;;;21.52;7.53;;;;;;;;;;1030424;28;20024;-75
2022/11/09 01:33:38;;;;;;;18.92;7.53;;;;;;;;;;1031979;28;20030;-75
2022/11/09 01:34:09;;;;;;;15.82;7.50;;;;;;;;;;1035406;28;20478;-76
2022/11/09 01:34:40;;;;;;;15.27;6.65;;;;;;;;;;1034850;28;20168;-76
2022/11/09 01:35:11;;;;;;;15.00;7.75;;;;;;;;;;1033306;28;20036;-76
2022/11/09 01:35:42;;;;;;;11.95;6.53;;;;;;;;;;1029292;28;20129;-76
2022/11/09 01:36:15;;;;;;;19.08;9.07;;;;;;;;;;1027248;28;20041;-76
2022/11/09 01:36:49;;;;;;;19.05;8.90;;;;;;;;;;1028589;28;20500;-76
2022/11/09 01:37:24;;;;;;;19.67;10.27;;;;;;;;;;1029993;28;20441;-76
2022/11/09 01:37:57;;;;;;;16.58;8.10;;;;;;;;;;1031774;28;20426;-76
2022/11/09 01:38:28;;;;;;;20.33;9.73;;;;;;;;;;1027490;28;20017;-77
2022/11/09 01:39:00;;;;;;;23.20;9.27;;;;;;;;;;1023875;29;20027;-76
2022/11/09 01:39:32;;;;;;;21.13;9.10;;;;;;;;;;1027395;28;20035;-76
2022/11/09 01:40:06;;;;;;;20.63;9.93;;;;;;;;;;1026911;28;20709;-76
2022/11/09 01:40:38;;;;;;;18.40;8.75;;;;;;;;;;1031017;28;20129;-76
2022/11/09 01:41:31;;;;;;;16.77;9.10;;;;;;;;;;1036634;28;20094;-76
2022/11/09 01:42:01;;;;;;;18.85;8.77;;;;;;;;;;1033814;28;20034;-76
2022/11/09 01:42:34;;;;;;;18.95;10.07;;;;;;;;;;1034101;28;20038;-76
2022/11/09 01:43:13;;;;;;;27.23;9.77;;;;;;;;;;1036993;28;20065;-76
2022/11/09 01:43:45;;;;;;;13.65;7.53;;;;;;;;;;1033243;28;20418;-76
2022/11/09 01:44:20;;;;;;;19.42;9.45;;;;;;;;;;1032998;28;20080;-76
2022/11/09 01:45:11;;;;;;;16.17;8.55;;;;;;;;;;1034068;28;20038;-76
2022/11/09 01:45:43;;;;;;;20.83;8.88;;;;;;;;;;1026673;28;20054;-76
2022/11/09 01:46:13;;;;;;;19.08;8.73;;;;;;;;;;1031102;28;20125;-77
2022/11/09 01:46:56;;;;;;;14.30;7.93;;;;;;;;;;1035158;28;20029;-77
2022/11/09 01:47:27;;;;;;;17.95;8.50;;;;;;;;;;1035625;28;20029;-77
2022/11/09 01:48:08;;;;;;;13.68;7.85;;;;;;;;;;1036265;28;20038;-77
2022/11/09 01:48:43;;;;;;;14.10;6.97;;;;;;;;;;1032349;28;20094;-77
2022/11/09 01:49:17;;;;;;;21.50;8.90;;;;;;;;;;1026763;28;20031;-76
2022/11/09 01:49:53;;;;;;;20.95;7.18;;;;;;;;;;1030134;28;20053;-77
2022/11/09 01:50:29;;;;;;;13.98;7.43;;;;;;;;;;1028729;28;20018;-76
2022/11/09 01:51:24;;;;;;;13.45;7.50;;;;;;;;;;1031984;28;20026;-76
2022/11/09 01:52:03;;;;;;;15.20;7.60;;;;;;;;;;1034853;28;20022;-77
2022/11/09 01:52:38;;;;;;;17.27;7.70;;;;;;;;;;1027543;28;20172;-77
2022/11/09 01:53:16;;;;;;;18.48;6.38;;;;;;;;;;1027514;28;20038;-76
2022/11/09 01:53:51;;;;;;;16.90;7.10;;;;;;;;;;1030241;28;20058;-76
2022/11/09 01:54:25;;;;;;;12.70;6.95;;;;;;;;;;1032421;28;20136;-77
2022/11/09 01:55:07;;;;;;;21.48;6.32;;;;;;;;;;1033552;28;20116;-76
2022/11/09 01:55:39;;;;;;;13.10;8.00;;;;;;;;;;1033361;28;20096;-76
2022/11/09 01:56:17;;;;;;;19.25;7.47;;;;;;;;;;1037786;28;20041;-77
2022/11/09 01:56:51;;;;;;;18.70;8.88;;;;;;;;;;1034394;28;20116;-76
2022/11/09 01:57:33;;;;;;;13.90;7.03;;;;;;;;;;1031942;28;20029;-76
2022/11/09 01:58:06;;;;;;;11.23;6.60;;;;;;;;;;1030529;28;20577;-76
2022/11/09 01:58:41;;;;;;;12.02;7.60;;;;;;;;;;1026827;28;20100;-75
2022/11/09 01:59:14;;;;;;;15.38;7.20;;;;;;;;;;1030022;28;20124;-75
2022/11/09 01:59:47;;;;;;;13.07;6.47;;;;;;;;;;1030321;28;20022;-77
2022/11/09 02:00:20;;;;;;;16.55;7.15;;;;;;;;;;1029949;28;20057;-77
2022/11/09 02:00:51;;;;;;;13.93;6.43;;;;;;;;;;1034827;28;20084;-78
2022/11/09 02:01:23;;;;;;;11.32;6.22;;;;;;;;;;1037787;28;20081;-77
2022/11/09 02:01:57;;;;;;;11.35;5.60;;;;;;;;;;1037107;28;20060;-77
2022/11/09 02:02:29;;;;;;;17.48;6.70;;;;;;;;;;1037168;28;20007;-77
2022/11/09 02:03:04;;;;;;;18.15;7.72;;;;;;;;;;1033952;28;20080;-77
2022/11/09 02:03:36;;;;;;;19.45;6.97;;;;;;;;;;1031972;28;21208;-78
2022/11/09 02:04:11;;;;;;;15.18;5.93;;;;;;;;;;1036485;28;20048;-77
2022/11/09 02:04:54;;;;;;;13.13;7.30;;;;;;;;;;1033821;28;20073;-77
2022/11/09 02:05:26;;;;;;;16.65;7.47;;;;;;;;;;1033233;28;20485;-77
2022/11/09 02:05:58;;;;;;;19.02;7.65;;;;;;;;;;1030979;28;20038;-77
2022/11/09 02:06:29;;;;;;;16.55;5.85;;;;;;;;;;1031041;28;20030;-77
2022/11/09 02:07:00;;;;;;;14.13;7.07;;;;;;;;;;1032640;28;20025;-77
2022/11/09 02:07:31;;;;;;;16.77;8.20;;;;;;;;;;1032058;28;20102;-76
2022/11/09 02:08:03;;;;;;;13.13;6.10;;;;;;;;;;1033604;28;20026;-77
2022/11/09 02:08:33;;;;;;;18.67;7.28;;;;;;;;;;1034460;28;20044;-76
2022/11/09 02:09:17;;;;;;;21.08;6.75;;;;;;;;;;1035606;28;20048;-76
2022/11/09 02:09:57;;;;;;;13.02;6.88;;;;;;;;;;1037733;28;20114;-76
2022/11/09 02:11:03;;;;;;;16.65;7.20;;;;;;;;;;1037386;28;20114;-76
2022/11/09 02:11:33;;;;;;;14.25;6.47;;;;;;;;;;1029037;28;20026;-77
2022/11/09 02:12:06;;;;;;;15.20;7.57;;;;;;;;;;1026477;29;20027;-77
2022/11/09 02:12:37;;;;;;;13.35;6.47;;;;;;;;;;1024682;29;20483;-76
2022/11/09 02:13:08;;;;;;;16.13;7.70;;;;;;;;;;1025137;29;20019;-76
2022/11/09 02:13:41;;;;;;;13.45;7.03;;;;;;;;;;1022952;29;20050;-76
2022/11/09 02:14:12;;;;;;;9.55;5.97;;;;;;;;;;1019349;28;20035;-77
2022/11/09 02:14:43;;;;;;;9.73;4.90;;;;;;;;;;1022097;28;20122;-77
2022/11/09 02:15:17;;;;;;;12.52;6.90;;;;;;;;;;1023020;28;20388;-76
2022/11/09 02:15:48;;;;;;;18.17;6.50;;;;;;;;;;1026955;28;20039;-76
2022/11/09 02:16:19;;;;;;;12.15;6.38;;;;;;;;;;1033058;28;20022;-76
2022/11/09 02:16:50;;;;;;;12.60;5.15;;;;;;;;;;1033871;28;20057;-77
2022/11/09 02:17:21;;;;;;;13.85;6.38;;;;;;;;;;1034734;28;20015;-76
2022/11/09 02:17:53;;;;;;;14.00;6.60;;;;;;;;;;1031464;28;20118;-76
2022/11/09 02:18:24;;;;;;;13.20;6.97;;;;;;;;;;1029516;28;20101;-76
2022/11/09 02:18:56;;;;;;;15.70;5.90;;;;;;;;;;1032225;28;20041;-76
2022/11/09 02:19:26;;;;;;;18.45;6.15;;;;;;;;;;1035457;28;20014;-76
2022/11/09 02:19:57;;;;;;;12.63;5.88;;;;;;;;;;1034198;28;20025;-76
2022/11/09 02:20:28;;;;;;;10.73;6.75;;;;;;;;;;1034841;28;20042;-76
2022/11/09 02:20:59;;;;;;;25.33;7.75;;;;;;;;;;1032902;28;20030;-76
2022/11/09 02:21:30;;;;;;;18.80;7.10;;;;;;;;;;1030692;28;20014;-76
2022/11/09 02:22:01;;;;;;;11.93;6.45;;;;;;;;;;1029212;28;20084;-76
2022/11/09 02:22:33;;;;;;;15.27;6.63;;;;;;;;;;1026446;28;20116;-76
2022/11/09 02:23:04;;;;;;;14.52;7.22;;;;;;;;;;1031650;28;20026;-76
2022/11/09 02:23:34;;;;;;;16.50;5.90;;;;;;;;;;1037733;28;20022;-76
2022/11/09 02:24:05;;;;;;;15.23;7.32;;;;;;;;;;1037043;28;20021;-76
2022/11/09 02:24:36;;;;;;;17.42;8.18;;;;;;;;;;1035741;28;20389;-76
2022/11/09 02:25:08;;;;;;;14.65;6.60;;;;;;;;;;1034243;28;20141;-75
2022/11/09 02:25:38;;;;;;;16.63;7.70;;;;;;;;;;1028478;28;20557;-76
2022/11/09 02:26:11;;;;;;;14.00;7.28;;;;;;;;;;1028778;28;20030;-76
2022/11/09 02:26:46;;;;;;;22.42;8.82;;;;;;;;;;1028354;28;20141;-75
2022/11/09 02:27:17;;;;;;;14.18;7.30;;;;;;;;;;1029158;28;20043;-75
2022/11/09 02:27:48;;;;;;;14.35;6.90;;;;;;;;;;1031910;28;20462;-75
2022/11/09 02:28:19;;;;;;;12.27;6.88;;;;;;;;;;1032223;28;20058;-76
2022/11/09 02:28:53;;;;;;;14.77;6.82;;;;;;;;;;1027167;28;20019;-76
2022/11/09 02:29:28;;;;;;;13.13;8.10;;;;;;;;;;1025614;28;20553;-76
2022/11/09 02:29:59;;;;;;;13.00;6.45;;;;;;;;;;1025347;28;20535;-78
2022/11/09 02:30:31;;;;;;;16.48;8.05;;;;;;;;;;1025954;28;20735;-77
2022/11/09 02:31:03;;;;;;;17.13;7.70;;;;;;;;;;1031133;28;20026;-77
2022/11/09 02:31:37;;;;;;;14.30;7.10;;;;;;;;;;1034930;28;20033;-77
2022/11/09 02:32:12;;;;;;;17.10;7.72;;;;;;;;;;1032337;28;20030;-76
2022/11/09 02:32:43;;;;;;;16.55;8.15;;;;;;;;;;1032757;28;20038;-76
2022/11/09 02:33:13;;;;;;;18.58;8.02;;;;;;;;;;1008814;28;20050;-76
2022/11/09 02:34:04;;;;;;;22.73;8.88;;;;;;;;;;1035970;28;20385;-77
2022/11/09 02:34:35;;;;;;;18.63;8.45;;;;;;;;;;1032909;28;20030;-77
2022/11/09 02:35:06;;;;;;;18.10;8.50;;;;;;;;;;1038679;28;20072;-77
2022/11/09 02:35:36;;;;;;;19.75;8.55;;;;;;;;;;1039578;28;20040;-77
2022/11/09 02:36:07;;;;;;;19.65;7.43;;;;;;;;;;1033051;28;20022;-77
2022/11/09 02:36:37;;;;;;;18.23;8.30;;;;;;;;;;1031472;28;20544;-76
2022/11/09 02:37:08;;;;;;;16.23;9.05;;;;;;;;;;1030407;28;20030;-75
2022/11/09 02:37:48;;;;;;;14.50;8.25;;;;;;;;;;1026117;28;20026;-76
2022/11/09 02:38:19;;;;;;;;;;;;;;;;;;1028933;28;20026;-76
2022/11/09 02:38:51;;;;;;;16.55;8.15;;;;;;;;;;1033810;28;19909;-76
2022/11/09 02:39:24;;;;;;;14.55;8.32;;;;;;;;;;1035042;28;20021;-76
2022/11/09 02:39:56;;;;;;;17.75;8.10;;;;;;;;;;1034410;28;20062;-76
2022/11/09 02:40:29;;;;;;;18.63;8.52;;;;;;;;;;1035315;28;20026;-77
2022/11/09 02:41:00;;;;;;;17.30;8.88;;;;;;;;;;1036387;28;20509;-77
2022/11/09 02:41:36;;;;;;;14.05;8.07;;;;;;;;;;1036113;28;20041;-77
2022/11/09 02:42:14;;;;;;;22.88;8.90;;;;;;;;;;1034582;28;20056;-77
2022/11/09 02:42:45;;;;;;;14.63;7.68;;;;;;;;;;1037192;28;20053;-77
2022/11/09 02:43:17;;;;;;;11.30;6.68;;;;;;;;;;1033195;28;20030;-77
2022/11/09 02:43:49;;;;;;;19.50;9.70;;;;;;;;;;1031101;28;20030;-77
2022/11/09 02:44:21;;;;;;;22.58;8.18;;;;;;;;;;1031195;28;20299;-77
2022/11/09 02:44:54;;;;;;;19.40;7.47;;;;;;;;;;1032425;28;20145;-77
2022/11/09 02:45:25;;;;;;;14.98;7.75;;;;;;;;;;1033546;28;20076;-77
2022/11/09 02:45:55;;;;;;;16.00;8.98;;;;;;;;;;1033660;28;20545;-77
2022/11/09 02:46:33;;;;;;;15.18;9.60;;;;;;;;;;1031145;28;21202;-77
2022/11/09 02:47:05;;;;;;;20.83;8.25;;;;;;;;;;1033467;28;20034;-78
2022/11/09 02:47:37;;;;;;;14.95;8.55;;;;;;;;;;1035254;28;20109;-76
2022/11/09 02:48:07;;;;;;;15.70;7.53;;;;;;;;;;1032787;28;20025;-76
2022/11/09 02:48:38;;;;;;;20.30;8.25;;;;;;;;;;1034585;28;20133;-75
2022/11/09 02:49:09;;;;;;;17.33;8.20;;;;;;;;;;1034423;28;20026;-75
2022/11/09 02:49:40;;;;;;;20.65;9.80;;;;;;;;;;1031551;28;20341;-75
2022/11/09 02:50:10;;;;;;;22.10;9.10;;;;;;;;;;1033663;28;20030;-75
2022/11/09 02:50:41;;;;;;;12.77;7.65;;;;;;;;;;1034938;28;20029;-75
2022/11/09 02:51:11;;;;;;;16.17;8.07;;;;;;;;;;1037601;28;20428;-75
2022/11/09 02:51:42;;;;;;;14.15;8.02;;;;;;;;;;1036254;28;20116;-76
2022/11/09 02:52:13;;;;;;;14.45;6.75;;;;;;;;;;1032971;28;20038;-75
2022/11/09 02:52:44;;;;;;;13.77;7.75;;;;;;;;;;1034549;28;20517;-75
2022/11/09 02:53:15;;;;;;;11.63;7.25;;;;;;;;;;1032876;28;20027;-76
2022/11/09 02:53:46;;;;;;;16.15;8.25;;;;;;;;;;1032704;28;20088;-75
2022/11/09 02:54:16;;;;;;;16.30;8.85;;;;;;;;;;1032645;28;20034;-75
2022/11/09 02:54:47;;;;;;;16.80;7.88;;;;;;;;;;1032993;28;20034;-75
2022/11/09 02:55:17;;;;;;;18.85;9.75;;;;;;;;;;1032093;28;20663;-74
2022/11/09 02:55:48;;;;;;;29.15;9.18;;;;;;;;;;1031667;28;20072;-75
2022/11/09 02:56:19;;;;;;;17.75;8.93;;;;;;;;;;1033028;28;20646;-76
2022/11/09 02:56:49;;;;;;;27.20;9.30;;;;;;;;;;1032979;28;20167;-75
2022/11/09 02:57:20;;;;;;;21.50;9.70;;;;;;;;;;1029915;28;20118;-75
2022/11/09 02:57:51;;;;;;;19.10;7.60;;;;;;;;;;1026653;28;20034;-75
2022/11/09 02:58:21;;;;;;;16.50;8.50;;;;;;;;;;1030012;28;20032;-75
2022/11/09 02:58:52;;;;;;;19.15;8.23;;;;;;;;;;1033438;28;20089;-77
2022/11/09 02:59:23;;;;;;;21.35;9.13;;;;;;;;;;1032649;28;20460;-76
2022/11/09 02:59:53;;;;;;;17.30;9.20;;;;;;;;;;1033952;28;20030;-76
2022/11/09 03:00:24;;;;;;;23.38;8.73;;;;;;;;;;1031979;28;20608;-77
2022/11/09 03:00:55;;;;;;;22.08;10.38;;;;;;;;;;1032722;28;20154;-77
2022/11/09 03:01:25;;;;;;;28.77;11.90;;;;;;;;;;1030679;28;20018;-76
2022/11/09 03:01:56;;;;;;;25.70;13.45;;;;;;;;;;1030396;28;20033;-77
2022/11/09 03:02:27;;;;;;;23.42;11.23;;;;;;;;;;1027064;28;20031;-76
2022/11/09 03:03:00;;;;;;;21.63;11.77;;;;;;;;;;1032296;28;20026;-76
2022/11/09 03:03:32;;;;;;;24.13;13.00;;;;;;;;;;1030546;28;20018;-77
2022/11/09 03:04:03;;;;;;;31.70;12.38;;;;;;;;;;1031934;28;20448;-75
2022/11/09 03:04:34;;;;;;;25.70;14.05;;;;;;;;;;1034094;28;20038;-76
2022/11/09 03:05:05;;;;;;;25.83;12.38;;;;;;;;;;1031154;28;20033;-77
2022/11/09 03:05:36;;;;;;;26.50;11.95;;;;;;;;;;1030455;28;20132;-77
2022/11/09 03:06:07;;;;;;;30.23;13.93;;;;;;;;;;1023666;28;20023;-80
2022/11/09 03:06:38;;;;;;;32.35;15.32;;;;;;;;;;1023907;28;20026;-80
2022/11/09 03:07:08;;;;;;;35.33;14.52;;;;;;;;;;1026585;28;20548;-80
2022/11/09 03:07:39;;;;;;;26.92;11.88;;;;;;;;;;1027003;28;20031;-80
2022/11/09 03:08:12;;;;;;;28.77;13.30;;;;;;;;;;1030874;28;20034;-80
2022/11/09 03:08:43;;;;;;;33.80;13.48;;;;;;;;;;1030451;28;20069;-80
2022/11/09 03:09:13;;;;;;;23.77;13.27;;;;;;;;;;1035674;28;20029;-80